createdAt,value
2018-10-01T00:00:05.184Z,24.90
2018-10-01T00:01:05.212Z,20.00
2018-10-01T00:02:05.254Z,19.90
2018-10-01T00:03:05.303Z,23.00
2018-10-01T00:04:05.461Z,17.70
2018-10-01T00:05:05.383Z,17.40
2018-10-01T00:06:05.442Z,16.70
2018-10-01T00:07:05.530Z,16.80
2018-10-01T00:08:05.532Z,15.40
2018-10-01T00:09:05.582Z,17.70
2018-10-01T00:10:05.610Z,17.80
2018-10-01T00:11:05.665Z,16.10
2018-10-01T00:12:05.726Z,16.90
2018-10-01T00:13:05.767Z,18.40
2018-10-01T00:14:05.817Z,20.00
2018-10-01T00:15:05.853Z,20.40
2018-10-01T00:16:05.880Z,21.70
2018-10-01T00:17:05.957Z,22.00
2018-10-01T00:18:05.994Z,22.70
2018-10-01T00:19:06.029Z,24.90
2018-10-01T00:20:06.065Z,24.30
2018-10-01T00:21:06.131Z,25.70
2018-10-01T00:22:06.167Z,25.10
2018-10-01T00:23:06.214Z,25.60
2018-10-01T00:24:06.276Z,23.80
2018-10-01T00:25:06.310Z,26.40
2018-10-01T00:26:06.354Z,26.20
2018-10-01T00:27:06.379Z,25.00
2018-10-01T00:28:06.434Z,24.60
2018-10-01T00:29:06.474Z,25.10
2018-10-01T00:30:06.539Z,27.70
2018-10-01T00:31:06.581Z,23.60
2018-10-01T00:32:06.621Z,23.30
2018-10-01T00:33:06.963Z,22.10
2018-10-01T00:34:06.704Z,24.50
2018-10-01T00:35:06.740Z,23.70
2018-10-01T00:36:06.810Z,25.80
2018-10-01T00:37:06.845Z,27.10
2018-10-01T00:38:06.982Z,26.40
2018-10-01T00:39:06.933Z,28.10
2018-10-01T00:40:06.988Z,30.80
2018-10-01T00:41:07.009Z,32.20
2018-10-01T00:42:07.061Z,31.90
2018-10-01T00:43:07.119Z,32.50
2018-10-01T00:44:07.250Z,32.20
2018-10-01T00:45:07.205Z,35.90
2018-10-01T00:46:07.241Z,34.80
2018-10-01T00:47:07.290Z,33.30
2018-10-01T00:48:07.329Z,34.30
2018-10-01T00:49:07.400Z,37.20
2018-10-01T00:50:07.433Z,35.00
2018-10-01T00:51:07.451Z,34.90
2018-10-01T00:52:07.512Z,34.60
2018-10-01T00:53:07.575Z,36.00
2018-10-01T00:54:07.599Z,31.90
2018-10-01T00:55:07.644Z,29.20
2018-10-01T00:56:07.666Z,28.00
2018-10-01T00:57:07.747Z,31.80
2018-10-01T00:58:07.810Z,30.30
2018-10-01T00:59:07.828Z,33.50
2018-10-01T01:00:07.870Z,33.60
2018-10-01T01:01:07.932Z,34.00
2018-10-01T01:02:07.970Z,34.40
2018-10-01T01:03:08.000Z,35.90
2018-10-01T01:04:08.045Z,34.50
2018-10-01T01:05:08.196Z,32.90
2018-10-01T01:06:08.138Z,33.10
2018-10-01T01:07:08.179Z,32.30
2018-10-01T01:08:08.230Z,33.50
2018-10-01T01:09:08.288Z,36.90
2018-10-01T01:10:08.298Z,33.80
2018-10-01T01:11:08.344Z,36.60
2018-10-01T01:12:08.391Z,34.90
2018-10-01T01:13:08.492Z,34.80
2018-10-01T01:14:08.540Z,35.90
2018-10-01T01:15:08.551Z,33.70
2018-10-01T01:16:08.691Z,33.20
2018-10-01T01:17:08.646Z,36.30
2018-10-01T01:18:08.656Z,32.10
2018-10-01T01:19:08.723Z,32.40
2018-10-01T01:20:08.762Z,33.30
2018-10-01T01:21:08.909Z,36.60
2018-10-01T01:22:08.847Z,32.80
2018-10-01T01:23:08.890Z,35.60
2018-10-01T01:24:08.951Z,34.20
2018-10-01T01:25:09.027Z,31.90
2018-10-01T01:26:09.047Z,33.80
2018-10-01T01:27:09.197Z,31.40
2018-10-01T01:28:09.148Z,30.40
2018-10-01T01:29:09.202Z,30.80
2018-10-01T01:30:09.264Z,30.90
2018-10-01T01:31:09.246Z,29.60
2018-10-01T01:32:09.313Z,30.10
2018-10-01T01:33:09.361Z,29.10
2018-10-01T01:34:09.385Z,27.80
2018-10-01T01:35:09.452Z,30.80
2018-10-01T01:36:09.483Z,36.40
2018-10-01T01:37:09.562Z,36.20
2018-10-01T01:38:09.566Z,32.10
2018-10-01T01:39:09.625Z,27.50
2018-10-01T01:40:09.664Z,28.70
2018-10-01T01:41:09.718Z,31.30
2018-10-01T01:42:09.740Z,27.20
2018-10-01T01:43:09.782Z,27.50
2018-10-01T01:44:09.834Z,27.60
2018-10-01T01:45:09.909Z,24.50
2018-10-01T01:46:09.935Z,25.30
2018-10-01T01:47:09.974Z,23.60
2018-10-01T01:48:10.067Z,24.00
2018-10-01T01:49:10.205Z,23.90
2018-10-01T01:50:10.119Z,22.60
2018-10-01T01:51:10.165Z,23.50
2018-10-01T01:52:10.231Z,24.90
2018-10-01T01:53:10.261Z,25.10
2018-10-01T01:54:10.309Z,24.60
2018-10-01T01:55:10.351Z,23.90
2018-10-01T01:56:10.404Z,24.40
2018-10-01T01:57:10.433Z,27.00
2018-10-01T01:58:10.477Z,26.70
2018-10-01T01:59:10.515Z,27.30
2018-10-01T02:00:10.554Z,27.80
2018-10-01T02:01:10.621Z,29.50
2018-10-01T02:02:10.656Z,31.20
2018-10-01T02:03:10.705Z,28.50
2018-10-01T02:04:10.743Z,28.10
2018-10-01T02:05:10.890Z,31.30
2018-10-01T02:06:10.851Z,29.30
2018-10-01T02:07:10.870Z,29.60
2018-10-01T02:08:10.921Z,29.80
2018-10-01T02:09:10.976Z,32.40
2018-10-01T02:10:11.002Z,30.50
2018-10-01T02:11:11.071Z,30.00
2018-10-01T02:12:11.118Z,30.70
2018-10-01T02:13:11.166Z,30.90
2018-10-01T02:14:11.207Z,30.80
2018-10-01T02:15:11.248Z,33.20
2018-10-01T02:16:11.402Z,33.60
2018-10-01T02:17:11.380Z,32.40
2018-10-01T02:18:11.368Z,36.40
2018-10-01T02:19:11.414Z,35.50
2018-10-01T02:20:11.470Z,35.50
2018-10-01T02:21:11.807Z,34.80
2018-10-01T02:22:11.612Z,35.00
2018-10-01T02:23:11.590Z,34.00
2018-10-01T02:24:11.644Z,38.10
2018-10-01T02:25:11.686Z,33.50
2018-10-01T02:26:11.734Z,34.60
2018-10-01T02:27:11.787Z,35.60
2018-10-01T02:28:11.821Z,34.10
2018-10-01T02:29:11.861Z,33.80
2018-10-01T02:30:11.968Z,33.70
2018-10-01T02:31:11.969Z,35.20
2018-10-01T02:32:11.993Z,34.50
2018-10-01T02:33:12.060Z,34.70
2018-10-01T02:34:12.109Z,33.30
2018-10-01T02:35:12.141Z,33.90
2018-10-01T02:36:12.176Z,33.60
2018-10-01T02:37:12.241Z,32.70
2018-10-01T02:38:12.290Z,32.80
2018-10-01T02:39:12.380Z,32.70
2018-10-01T02:40:12.375Z,35.90
2018-10-01T02:41:12.451Z,37.90
2018-10-01T02:42:12.565Z,41.10
2018-10-01T02:43:12.488Z,38.10
2018-10-01T02:44:12.604Z,40.70
2018-10-01T02:45:12.596Z,34.50
2018-10-01T02:46:12.655Z,36.10
2018-10-01T02:47:12.724Z,34.60
2018-10-01T02:48:12.717Z,37.30
2018-10-01T02:49:12.756Z,42.40
2018-10-01T02:50:12.812Z,37.10
2018-10-01T02:51:12.851Z,33.60
2018-10-01T02:52:13.009Z,33.20
2018-10-01T02:53:12.962Z,34.10
2018-10-01T02:54:13.000Z,34.20
2018-10-01T02:55:13.082Z,35.90
2018-10-01T02:56:13.097Z,36.70
2018-10-01T02:57:13.121Z,34.60
2018-10-01T02:58:13.173Z,37.20
2018-10-01T02:59:13.215Z,39.30
2018-10-01T03:00:13.272Z,40.20
2018-10-01T03:01:13.329Z,44.30
2018-10-01T03:02:13.353Z,35.20
2018-10-01T03:03:13.408Z,35.30
2018-10-01T03:04:13.458Z,32.70
2018-10-01T03:05:13.494Z,32.40
2018-10-01T03:06:13.570Z,33.00
2018-10-01T03:07:13.886Z,33.80
2018-10-01T03:08:13.617Z,33.30
2018-10-01T03:09:13.718Z,33.90
2018-10-01T03:10:13.723Z,33.50
2018-10-01T03:11:13.758Z,28.50
2018-10-01T03:12:13.889Z,35.30
2018-10-01T03:13:13.871Z,33.90
2018-10-01T03:14:13.904Z,28.50
2018-10-01T03:15:13.947Z,27.80
2018-10-01T03:16:14.016Z,27.20
2018-10-01T03:17:14.047Z,27.40
2018-10-01T03:18:14.130Z,30.30
2018-10-01T03:19:14.136Z,27.10
2018-10-01T03:20:14.187Z,26.70
2018-10-01T03:21:14.286Z,35.30
2018-10-01T03:22:14.279Z,29.40
2018-10-01T03:23:14.299Z,26.10
2018-10-01T03:24:14.344Z,27.90
2018-10-01T03:25:14.420Z,30.40
2018-10-01T03:26:14.447Z,31.60
2018-10-01T03:27:14.528Z,28.90
2018-10-01T03:28:14.556Z,27.00
2018-10-01T03:29:14.590Z,27.50
2018-10-01T03:30:14.638Z,27.10
2018-10-01T03:31:14.672Z,30.80
2018-10-01T03:32:14.739Z,32.70
2018-10-01T03:33:14.787Z,33.10
2018-10-01T03:34:14.824Z,40.10
2018-10-01T03:35:14.911Z,35.70
2018-10-01T03:36:14.916Z,34.40
2018-10-01T03:37:14.955Z,35.80
2018-10-01T03:38:15.005Z,33.80
2018-10-01T03:39:15.054Z,36.20
2018-10-01T03:40:15.129Z,42.10
2018-10-01T03:41:15.223Z,37.30
2018-10-01T03:42:15.245Z,36.10
2018-10-01T03:43:15.235Z,28.90
2018-10-01T03:44:15.268Z,30.30
2018-10-01T03:45:15.332Z,31.30
2018-10-01T03:46:15.371Z,31.10
2018-10-01T03:47:15.408Z,28.70
2018-10-01T03:48:15.470Z,26.70
2018-10-01T03:49:15.509Z,27.40
2018-10-01T03:50:15.546Z,26.10
2018-10-01T03:51:15.610Z,25.60
2018-10-01T03:52:15.728Z,26.80
2018-10-01T03:53:15.700Z,22.60
2018-10-01T03:54:15.752Z,22.00
2018-10-01T03:55:15.807Z,23.40
2018-10-01T03:56:15.822Z,26.30
2018-10-01T03:57:15.875Z,24.90
2018-10-01T03:58:15.909Z,26.50
2018-10-01T03:59:15.979Z,25.80
2018-10-01T04:00:16.027Z,24.70
2018-10-01T04:01:16.060Z,30.30
2018-10-01T04:02:16.215Z,24.60
2018-10-01T04:03:16.155Z,28.50
2018-10-01T04:04:16.201Z,30.10
2018-10-01T04:05:16.229Z,29.40
2018-10-01T04:06:16.326Z,28.30
2018-10-01T04:07:16.609Z,28.10
2018-10-01T04:08:16.421Z,28.00
2018-10-01T04:09:16.430Z,25.70
2018-10-01T04:10:16.461Z,23.30
2018-10-01T04:11:16.515Z,24.40
2018-10-01T04:12:16.677Z,22.30
2018-10-01T04:13:16.608Z,22.60
2018-10-01T04:14:16.634Z,27.10
2018-10-01T04:15:16.686Z,33.40
2018-10-01T04:16:16.782Z,32.00
2018-10-01T04:17:16.792Z,28.40
2018-10-01T04:18:16.942Z,24.50
2018-10-01T04:19:16.892Z,20.80
2018-10-01T04:20:16.927Z,22.90
2018-10-01T04:21:16.968Z,23.90
2018-10-01T04:22:17.025Z,22.60
2018-10-01T04:23:17.069Z,24.90
2018-10-01T04:24:17.117Z,25.20
2018-10-01T04:25:17.164Z,24.90
2018-10-01T04:26:17.202Z,21.90
2018-10-01T04:27:17.294Z,23.20
2018-10-01T04:28:17.454Z,23.60
2018-10-01T04:29:17.356Z,24.10
2018-10-01T04:30:17.378Z,26.30
2018-10-01T04:31:17.416Z,22.90
2018-10-01T04:32:17.477Z,22.50
2018-10-01T04:33:17.563Z,21.40
2018-10-01T04:34:17.625Z,19.60
2018-10-01T04:35:17.659Z,19.40
2018-10-01T04:36:17.673Z,20.90
2018-10-01T04:37:17.765Z,21.90
2018-10-01T04:38:17.749Z,25.60
2018-10-01T04:39:17.787Z,23.90
2018-10-01T04:40:17.836Z,31.10
2018-10-01T04:41:17.906Z,26.70
2018-10-01T04:42:17.930Z,24.20
2018-10-01T04:43:17.965Z,23.10
2018-10-01T04:44:18.058Z,22.30
2018-10-01T04:45:18.073Z,26.90
2018-10-01T04:46:18.109Z,27.30
2018-10-01T04:47:18.176Z,31.70
2018-10-01T04:48:18.201Z,27.00
2018-10-01T04:49:18.553Z,22.20
2018-10-01T04:50:18.319Z,22.10
2018-10-01T04:51:18.340Z,18.60
2018-10-01T04:52:18.412Z,23.20
2018-10-01T04:53:18.449Z,25.10
2018-10-01T04:54:18.499Z,21.90
2018-10-01T04:55:18.530Z,18.10
2018-10-01T04:56:18.594Z,19.30
2018-10-01T04:57:18.640Z,20.20
2018-10-01T04:58:18.774Z,21.50
2018-10-01T04:59:18.727Z,25.00
2018-10-01T05:00:19.107Z,26.00
2018-10-01T05:01:18.859Z,25.00
2018-10-01T05:02:18.843Z,26.00
2018-10-01T05:03:18.905Z,21.70
2018-10-01T05:04:18.981Z,21.40
2018-10-01T05:05:19.004Z,19.70
2018-10-01T05:06:19.067Z,18.70
2018-10-01T05:07:19.130Z,19.40
2018-10-01T05:08:19.169Z,17.80
2018-10-01T05:09:19.199Z,20.30
2018-10-01T05:10:19.236Z,18.30
2018-10-01T05:11:19.589Z,18.00
2018-10-01T05:12:19.314Z,18.80
2018-10-01T05:13:19.348Z,22.70
2018-10-01T05:14:19.394Z,20.40
2018-10-01T05:15:19.455Z,18.90
2018-10-01T05:16:19.524Z,19.10
2018-10-01T05:17:19.543Z,18.60
2018-10-01T05:18:19.599Z,17.70
2018-10-01T05:19:19.692Z,19.20
2018-10-01T05:20:19.686Z,20.30
2018-10-01T05:21:19.725Z,23.70
2018-10-01T05:22:19.792Z,19.50
2018-10-01T05:23:19.820Z,19.70
2018-10-01T05:24:19.873Z,18.80
2018-10-01T05:25:19.926Z,24.40
2018-10-01T05:26:20.004Z,23.10
2018-10-01T05:27:20.072Z,22.30
2018-10-01T05:28:20.040Z,28.10
2018-10-01T05:29:20.162Z,29.40
2018-10-01T05:30:20.140Z,28.40
2018-10-01T05:31:20.181Z,25.10
2018-10-01T05:32:20.346Z,25.40
2018-10-01T05:33:20.322Z,25.30
2018-10-01T05:34:20.371Z,27.50
2018-10-01T05:35:20.378Z,24.70
2018-10-01T05:36:20.424Z,21.30
2018-10-01T05:37:20.763Z,22.50
2018-10-01T05:38:20.512Z,22.20
2018-10-01T05:39:20.562Z,23.90
2018-10-01T05:40:20.601Z,21.90
2018-10-01T05:41:20.686Z,21.70
2018-10-01T05:42:20.706Z,26.40
2018-10-01T05:43:20.747Z,22.20
2018-10-01T05:44:20.779Z,24.00
2018-10-01T05:45:20.826Z,25.00
2018-10-01T05:46:20.870Z,26.70
2018-10-01T05:47:20.935Z,25.10
2018-10-01T05:48:21.225Z,25.60
2018-10-01T05:49:21.022Z,24.40
2018-10-01T05:50:21.071Z,23.30
2018-10-01T05:51:21.106Z,19.40
2018-10-01T05:52:21.208Z,20.10
2018-10-01T05:53:21.340Z,20.00
2018-10-01T05:54:21.268Z,19.40
2018-10-01T05:55:21.295Z,18.40
2018-10-01T05:56:21.355Z,17.10
2018-10-01T05:57:21.378Z,17.80
2018-10-01T05:58:21.727Z,18.40
2018-10-01T05:59:21.494Z,16.90
2018-10-01T06:00:21.534Z,22.70
2018-10-01T06:01:21.578Z,18.80
2018-10-01T06:02:21.614Z,17.80
2018-10-01T06:03:21.710Z,16.70
2018-10-01T06:04:21.702Z,22.00
2018-10-01T06:05:21.752Z,25.00
2018-10-01T06:06:21.835Z,22.60
2018-10-01T06:07:21.849Z,24.10
2018-10-01T06:08:21.876Z,19.70
2018-10-01T06:09:22.242Z,20.80
2018-10-01T06:10:21.992Z,21.80
2018-10-01T06:11:22.047Z,24.80
2018-10-01T06:12:22.078Z,24.10
2018-10-01T06:13:22.158Z,24.00
2018-10-01T06:14:22.313Z,22.90
2018-10-01T06:15:22.207Z,20.50
2018-10-01T06:16:22.308Z,16.00
2018-10-01T06:17:22.295Z,16.80
2018-10-01T06:18:22.342Z,16.70
2018-10-01T06:19:22.404Z,18.80
2018-10-01T06:20:22.454Z,15.70
2018-10-01T06:21:22.488Z,19.30
2018-10-01T06:22:22.581Z,15.60
2018-10-01T06:23:22.577Z,18.60
2018-10-01T06:24:22.611Z,16.40
2018-10-01T06:25:22.785Z,17.60
2018-10-01T06:26:22.720Z,16.90
2018-10-01T06:27:22.757Z,15.70
2018-10-01T06:28:22.818Z,14.60
2018-10-01T06:29:22.861Z,14.80
2018-10-01T06:30:22.894Z,14.60
2018-10-01T06:31:22.943Z,15.80
2018-10-01T06:32:22.985Z,19.60
2018-10-01T06:33:23.026Z,12.70
2018-10-01T06:34:23.089Z,12.70
2018-10-01T06:35:23.099Z,12.10
2018-10-01T06:36:23.313Z,12.40
2018-10-01T06:37:23.201Z,11.80
2018-10-01T06:38:23.263Z,10.80
2018-10-01T06:39:23.318Z,11.50
2018-10-01T06:40:23.362Z,13.20
2018-10-01T06:41:23.408Z,13.30
2018-10-01T06:42:23.441Z,13.10
2018-10-01T06:43:23.496Z,12.00
2018-10-01T06:44:23.567Z,10.80
2018-10-01T06:45:23.596Z,11.30
2018-10-01T06:46:23.856Z,11.00
2018-10-01T06:47:23.689Z,9.90
2018-10-01T06:48:23.724Z,10.40
2018-10-01T06:49:23.774Z,12.70
2018-10-01T06:50:23.819Z,12.70
2018-10-01T06:51:23.973Z,12.60
2018-10-01T06:52:23.913Z,12.20
2018-10-01T06:53:23.953Z,12.80
2018-10-01T06:54:23.999Z,12.00
2018-10-01T06:55:24.045Z,10.70
2018-10-01T06:56:24.086Z,11.90
2018-10-01T06:57:24.141Z,12.60
2018-10-01T06:58:24.187Z,12.70
2018-10-01T06:59:24.208Z,13.00
2018-10-01T07:00:24.293Z,9.70
2018-10-01T07:01:24.352Z,10.20
2018-10-01T07:02:24.485Z,10.60
2018-10-01T07:03:24.401Z,11.20
2018-10-01T07:04:24.454Z,11.00
2018-10-01T07:05:24.528Z,10.80
2018-10-01T07:06:24.599Z,11.00
2018-10-01T07:07:24.832Z,10.80
2018-10-01T07:08:24.627Z,10.00
2018-10-01T07:09:24.697Z,10.70
2018-10-01T07:10:24.749Z,10.20
2018-10-01T07:11:24.893Z,10.30
2018-10-01T07:12:24.933Z,10.60
2018-10-01T07:13:24.881Z,9.90
2018-10-01T07:14:24.904Z,9.40
2018-10-01T07:15:24.964Z,10.20
2018-10-01T07:16:25.092Z,9.90
2018-10-01T07:17:25.187Z,8.90
2018-10-01T07:18:25.102Z,10.00
2018-10-01T07:19:25.147Z,10.00
2018-10-01T07:20:25.190Z,10.20
2018-10-01T07:21:25.249Z,9.80
2018-10-01T07:22:25.605Z,10.60
2018-10-01T07:23:25.468Z,9.70
2018-10-01T07:24:25.386Z,9.70
2018-10-01T07:25:25.423Z,9.60
2018-10-01T07:26:25.483Z,9.10
2018-10-01T07:27:25.610Z,9.40
2018-10-01T07:28:25.576Z,9.20
2018-10-01T07:29:25.589Z,9.80
2018-10-01T07:30:25.635Z,9.40
2018-10-01T07:31:25.693Z,9.80
2018-10-01T07:32:25.753Z,10.20
2018-10-01T07:33:25.788Z,10.00
2018-10-01T07:34:25.833Z,9.70
2018-10-01T07:35:25.916Z,9.80
2018-10-01T07:36:25.909Z,10.20
2018-10-01T07:37:25.946Z,11.00
2018-10-01T07:38:26.010Z,9.90
2018-10-01T07:39:26.097Z,10.00
2018-10-01T07:40:26.086Z,9.90
2018-10-01T07:41:26.162Z,10.10
2018-10-01T07:42:26.210Z,9.90
2018-10-01T07:43:26.281Z,10.60
2018-10-01T07:44:26.291Z,10.50
2018-10-01T07:45:26.400Z,9.80
2018-10-01T07:46:26.385Z,9.80
2018-10-01T07:47:26.446Z,10.20
2018-10-01T07:48:26.563Z,10.50
2018-10-01T07:49:26.560Z,11.20
2018-10-01T07:50:26.615Z,10.20
2018-10-01T07:51:26.590Z,10.60
2018-10-01T07:52:26.671Z,10.20
2018-10-01T07:53:26.747Z,10.20
2018-10-01T07:54:26.791Z,10.10
2018-10-01T07:55:26.791Z,10.70
2018-10-01T07:56:26.838Z,10.70
2018-10-01T07:57:26.917Z,11.80
2018-10-01T07:58:27.218Z,10.70
2018-10-01T07:59:27.000Z,10.60
2018-10-01T08:00:27.074Z,12.00
2018-10-01T08:01:27.053Z,9.80
2018-10-01T08:02:27.151Z,10.00
2018-10-01T08:03:27.149Z,11.00
2018-10-01T08:04:27.217Z,11.00
2018-10-01T08:05:27.287Z,10.60
2018-10-01T08:06:27.295Z,11.00
2018-10-01T08:07:27.338Z,10.20
2018-10-01T08:08:27.401Z,10.50
2018-10-01T08:09:27.486Z,10.20
2018-10-01T08:10:27.722Z,10.20
2018-10-01T08:11:27.514Z,9.90
2018-10-01T08:12:27.590Z,10.70
2018-10-01T08:13:27.633Z,10.20
2018-10-01T08:14:27.718Z,10.90
2018-10-01T08:15:27.717Z,10.50
2018-10-01T08:16:27.798Z,11.50
2018-10-01T08:17:27.817Z,12.20
2018-10-01T08:18:27.885Z,11.90
2018-10-01T08:19:27.870Z,11.70
2018-10-01T08:20:27.965Z,11.10
2018-10-01T08:21:27.983Z,11.40
2018-10-01T08:22:28.076Z,11.70
2018-10-01T08:23:28.088Z,13.00
2018-10-01T08:24:28.107Z,11.00
2018-10-01T08:25:28.192Z,11.50
2018-10-01T08:26:28.253Z,12.60
2018-10-01T08:27:28.267Z,12.30
2018-10-01T08:28:28.312Z,12.80
2018-10-01T08:29:28.360Z,11.90
2018-10-01T08:30:28.396Z,11.70
2018-10-01T08:31:28.420Z,12.40
2018-10-01T08:32:28.545Z,12.20
2018-10-01T08:33:28.537Z,10.60
2018-10-01T08:34:28.566Z,11.30
2018-10-01T08:35:28.676Z,11.50
2018-10-01T08:36:28.677Z,10.40
2018-10-01T08:37:28.858Z,11.40
2018-10-01T08:38:28.825Z,11.20
2018-10-01T08:39:28.793Z,11.00
2018-10-01T08:40:28.860Z,10.90
2018-10-01T08:41:28.963Z,10.80
2018-10-01T08:42:28.930Z,11.80
2018-10-01T08:43:29.002Z,11.30
2018-10-01T08:44:29.067Z,10.50
2018-10-01T08:45:29.085Z,11.50
2018-10-01T08:46:29.121Z,11.30
2018-10-01T08:47:29.313Z,11.70
2018-10-01T08:48:29.251Z,11.10
2018-10-01T08:49:29.301Z,12.00
2018-10-01T08:50:29.359Z,11.80
2018-10-01T08:51:29.359Z,11.40
2018-10-01T08:52:29.404Z,11.70
2018-10-01T08:53:29.515Z,10.70
2018-10-01T08:54:29.487Z,11.10
2018-10-01T08:55:29.529Z,11.40
2018-10-01T08:56:29.609Z,12.20
2018-10-01T08:57:29.736Z,12.40
2018-10-01T08:58:29.674Z,13.70
2018-10-01T08:59:29.773Z,13.50
2018-10-01T09:00:29.784Z,13.90
2018-10-01T09:01:29.818Z,13.60
2018-10-01T09:02:29.854Z,14.30
2018-10-01T09:03:29.913Z,14.30
2018-10-01T09:04:29.955Z,14.90
2018-10-01T09:05:30.070Z,15.10
2018-10-01T09:06:30.059Z,12.50
2018-10-01T09:07:30.170Z,11.80
2018-10-01T09:08:30.162Z,14.80
2018-10-01T09:09:30.167Z,14.90
2018-10-01T09:10:30.222Z,14.60
2018-10-01T09:11:30.340Z,12.70
2018-10-01T09:12:30.306Z,14.00
2018-10-01T09:13:30.332Z,15.30
2018-10-01T09:14:30.432Z,17.30
2018-10-01T09:15:30.447Z,15.90
2018-10-01T09:16:30.495Z,14.00
2018-10-01T09:17:30.636Z,13.50
2018-10-01T09:18:30.598Z,14.20
2018-10-01T09:19:30.648Z,14.10
2018-10-01T09:20:30.714Z,14.20
2018-10-01T09:21:30.820Z,14.60
2018-10-01T09:22:30.790Z,13.50
2018-10-01T09:23:31.106Z,14.80
2018-10-01T09:24:30.841Z,13.10
2018-10-01T09:25:30.932Z,14.80
2018-10-01T09:26:31.090Z,13.20
2018-10-01T09:27:31.047Z,16.10
2018-10-01T09:28:31.199Z,15.50
2018-10-01T09:29:31.175Z,15.90
2018-10-01T09:30:31.145Z,15.20
2018-10-01T09:31:31.187Z,15.10
2018-10-01T09:32:31.316Z,15.00
2018-10-01T09:33:31.389Z,15.00
2018-10-01T09:34:31.332Z,14.80
2018-10-01T09:35:31.433Z,14.20
2018-10-01T09:36:31.433Z,14.80
2018-10-01T09:37:31.468Z,14.70
2018-10-01T09:38:31.608Z,13.00
2018-10-01T09:39:31.609Z,14.60
2018-10-01T09:40:31.750Z,14.10
2018-10-01T09:41:31.653Z,14.80
2018-10-01T09:42:31.699Z,14.90
2018-10-01T09:43:31.752Z,15.20
2018-10-01T09:44:31.965Z,15.10
2018-10-01T09:45:31.843Z,15.70
2018-10-01T09:46:31.922Z,15.50
2018-10-01T09:47:31.929Z,15.00
2018-10-01T09:48:31.994Z,14.00
2018-10-01T09:49:32.010Z,14.30
2018-10-01T09:50:32.157Z,13.80
2018-10-01T09:51:32.117Z,14.40
2018-10-01T09:52:32.226Z,14.20
2018-10-01T09:53:32.230Z,13.40
2018-10-01T09:54:32.258Z,13.60
2018-10-01T09:55:32.420Z,14.20
2018-10-01T09:56:32.394Z,13.80
2018-10-01T09:57:32.392Z,14.10
2018-10-01T09:58:32.511Z,13.90
2018-10-01T09:59:32.496Z,14.50
2018-10-01T10:00:32.548Z,15.40
2018-10-01T10:01:32.641Z,13.90
2018-10-01T10:02:32.712Z,13.40
2018-10-01T10:03:32.696Z,14.40
2018-10-01T10:04:32.816Z,14.10
2018-10-01T10:05:32.786Z,14.70
2018-10-01T10:06:32.922Z,16.30
2018-10-01T10:07:32.857Z,16.00
2018-10-01T10:08:33.010Z,15.80
2018-10-01T10:09:32.953Z,16.20
2018-10-01T10:10:33.038Z,16.30
2018-10-01T10:11:33.092Z,17.00
2018-10-01T10:12:33.196Z,16.20
2018-10-01T10:13:33.172Z,16.60
2018-10-01T10:14:33.328Z,16.90
2018-10-01T10:15:33.297Z,18.90
2018-10-01T10:16:33.315Z,19.50
2018-10-01T10:17:33.387Z,18.30
2018-10-01T10:18:33.391Z,18.90
2018-10-01T10:19:33.437Z,18.10
2018-10-01T10:20:33.617Z,16.70
2018-10-01T10:21:33.543Z,17.90
2018-10-01T10:22:33.686Z,20.40
2018-10-01T10:23:33.897Z,20.40
2018-10-01T10:24:33.657Z,23.90
2018-10-01T10:25:33.725Z,19.90
2018-10-01T10:26:33.907Z,22.80
2018-10-01T10:27:33.799Z,24.30
2018-10-01T10:28:34.110Z,24.90
2018-10-01T10:29:33.914Z,23.90
2018-10-01T10:30:33.971Z,23.40
2018-10-01T10:31:34.019Z,21.20
2018-10-01T10:32:34.078Z,25.20
2018-10-01T10:33:34.110Z,23.30
2018-10-01T10:34:34.255Z,24.40
2018-10-01T10:35:34.249Z,23.90
2018-10-01T10:36:34.255Z,26.80
2018-10-01T10:37:34.297Z,23.10
2018-10-01T10:38:34.381Z,22.40
2018-10-01T10:39:34.441Z,26.00
2018-10-01T10:40:34.439Z,24.80
2018-10-01T10:41:34.535Z,23.60
2018-10-01T10:42:34.536Z,23.60
2018-10-01T10:43:34.690Z,22.60
2018-10-01T10:44:34.639Z,25.30
2018-10-01T10:45:34.715Z,22.90
2018-10-01T10:46:34.718Z,24.80
2018-10-01T10:47:34.801Z,30.40
2018-10-01T10:48:34.809Z,24.30
2018-10-01T10:49:34.868Z,28.20
2018-10-01T10:50:35.025Z,26.10
2018-10-01T10:51:34.993Z,25.40
2018-10-01T10:52:34.994Z,22.20
2018-10-01T10:53:35.051Z,32.40
2018-10-01T10:54:35.080Z,27.70
2018-10-01T10:55:35.153Z,21.70
2018-10-01T10:56:35.313Z,25.30
2018-10-01T10:57:35.233Z,24.80
2018-10-01T10:58:35.280Z,25.90
2018-10-01T10:59:35.332Z,22.70
2018-10-01T11:00:35.377Z,24.80
2018-10-01T11:01:35.393Z,27.20
2018-10-01T11:02:35.495Z,22.80
2018-10-01T11:03:35.518Z,22.50
2018-10-01T11:04:35.566Z,26.30
2018-10-01T11:05:35.584Z,25.30
2018-10-01T11:06:35.663Z,25.50
2018-10-01T11:07:35.695Z,24.80
2018-10-01T11:08:35.773Z,32.20
2018-10-01T11:09:36.084Z,23.60
2018-10-01T11:10:35.846Z,25.60
2018-10-01T11:11:35.931Z,25.20
2018-10-01T11:12:35.950Z,29.10
2018-10-01T11:13:36.005Z,23.80
2018-10-01T11:14:36.238Z,20.40
2018-10-01T11:15:36.068Z,22.70
2018-10-01T11:16:36.141Z,26.90
2018-10-01T11:17:36.189Z,22.90
2018-10-01T11:18:36.392Z,24.10
2018-10-01T11:19:36.264Z,26.30
2018-10-01T11:20:36.437Z,24.30
2018-10-01T11:21:36.546Z,23.20
2018-10-01T11:22:36.392Z,20.60
2018-10-01T11:23:36.472Z,20.80
2018-10-01T11:24:36.507Z,23.00
2018-10-01T11:25:36.686Z,22.90
2018-10-01T11:26:36.584Z,27.70
2018-10-01T11:27:36.695Z,25.00
2018-10-01T11:28:36.685Z,20.80
2018-10-01T11:29:36.750Z,23.60
2018-10-01T11:30:36.810Z,21.20
2018-10-01T11:31:37.104Z,23.10
2018-10-01T11:32:36.893Z,22.80
2018-10-01T11:33:36.948Z,20.10
2018-10-01T11:34:37.092Z,22.00
2018-10-01T11:35:37.032Z,22.60
2018-10-01T11:36:37.078Z,21.00
2018-10-01T11:37:37.268Z,20.90
2018-10-01T11:38:37.175Z,21.20
2018-10-01T11:39:37.368Z,21.20
2018-10-01T11:40:37.274Z,21.00
2018-10-01T11:41:37.337Z,21.90
2018-10-01T11:42:37.638Z,20.70
2018-10-01T11:43:37.460Z,21.60
2018-10-01T11:44:37.469Z,22.20
2018-10-01T11:45:37.555Z,23.40
2018-10-01T11:46:37.576Z,23.00
2018-10-01T11:47:37.713Z,21.90
2018-10-01T11:48:37.645Z,22.10
2018-10-01T11:49:37.719Z,23.20
2018-10-01T11:50:37.806Z,22.20
2018-10-01T11:51:37.846Z,22.90
2018-10-01T11:52:37.958Z,23.00
2018-10-01T11:53:37.918Z,22.60
2018-10-01T11:54:38.000Z,23.90
2018-10-01T11:55:38.001Z,23.70
2018-10-01T11:56:38.052Z,24.40
2018-10-01T11:57:38.210Z,24.60
2018-10-01T11:58:38.210Z,23.80
2018-10-01T11:59:38.205Z,24.40
2018-10-01T12:00:38.232Z,25.70
2018-10-01T12:01:38.291Z,22.40
2018-10-01T12:02:38.427Z,23.70
2018-10-01T12:03:38.487Z,22.90
2018-10-01T12:04:38.422Z,23.00
2018-10-01T12:05:38.460Z,22.40
2018-10-01T12:06:38.527Z,23.60
2018-10-01T12:07:38.559Z,23.40
2018-10-01T12:08:38.723Z,23.60
2018-10-01T12:09:38.859Z,22.90
2018-10-01T12:10:38.925Z,22.60
2018-10-01T12:11:38.758Z,23.30
2018-10-01T12:12:38.823Z,23.30
2018-10-01T12:13:38.878Z,23.50
2018-10-01T12:14:38.960Z,22.90
2018-10-01T12:15:39.020Z,23.10
2018-10-01T12:16:39.003Z,22.30
2018-10-01T12:17:39.033Z,23.60
2018-10-01T12:18:39.118Z,21.00
2018-10-01T12:19:39.154Z,22.10
2018-10-01T12:20:39.201Z,21.30
2018-10-01T12:21:39.294Z,21.50
2018-10-01T12:22:39.318Z,22.00
2018-10-01T12:23:39.398Z,22.30
2018-10-01T12:24:39.515Z,21.50
2018-10-01T12:25:39.490Z,21.10
2018-10-01T12:26:39.516Z,20.90
2018-10-01T12:27:39.681Z,21.20
2018-10-01T12:28:39.600Z,22.20
2018-10-01T12:29:39.759Z,20.10
2018-10-01T12:30:39.703Z,20.50
2018-10-01T12:31:39.754Z,19.80
2018-10-01T12:32:39.804Z,19.70
2018-10-01T12:33:39.954Z,19.80
2018-10-01T12:34:39.901Z,19.60
2018-10-01T12:35:39.958Z,18.20
2018-10-01T12:36:40.015Z,18.30
2018-10-01T12:37:40.049Z,18.80
2018-10-01T12:38:40.100Z,18.30
2018-10-01T12:39:40.381Z,18.90
2018-10-01T12:40:40.212Z,18.60
2018-10-01T12:41:40.258Z,18.10
2018-10-01T12:42:40.325Z,18.50
2018-10-01T12:43:40.385Z,18.20
2018-10-01T12:44:40.423Z,17.90
2018-10-01T12:45:40.537Z,18.50
2018-10-01T12:46:40.532Z,18.50
2018-10-01T12:47:40.565Z,18.80
2018-10-01T12:48:40.640Z,18.10
2018-10-01T12:49:40.676Z,19.00
2018-10-01T12:50:40.734Z,18.00
2018-10-01T12:51:40.916Z,18.50
2018-10-01T12:52:40.811Z,17.80
2018-10-01T12:53:40.891Z,18.10